Terminal Aerodrome Forecast
Issued by NWS

Home | Current Version | Previous Version | Text Only | Print | Product List | Glossary On
Versions: 1 2 3 4 5 6 7 8 9 10 11 12 13 14 15 16 17 18 19 20 21 22 23 24 25 26 27 28 29 30 31 32 33 34 35 36 37 38
000
FTUS41 KRNK 270326 AAA
TAFBCB
TAF AMD
KBCB 270326Z 2703/2724 31008G16KT P6SM VCSH SCT009 OVC015
     FM270600 32007KT 4SM -RA BR OVC009
     FM271200 32005KT 2SM BR OVC007
     FM271600 32005KT 5SM BR SCT007 OVC025
     FM271800 32006KT P6SM SCT020 BKN040=

USA.gov is the U.S. government's official web portal to all federal, state and local government web resources and services.